VTD146 UAOO-UAIT
Flight info
| Callsign | VTD146 |
|---|---|
| Flight time | 1h 18m |
| Altitude | 13000 |
| Route | GITIM L139 KUDUG |
| Aircraft | DA42/L-SDEFGRY/C |
Departure
| Time | 2026-04-12 04:08 |
|---|---|
| Airport | Korkyt Ata International Airport (UAOO) |
Arrival
| Time | 2026-04-12 05:26 |
|---|---|
| Airport | Hazrat Sultan International Airport (UAIT) |
| Time | Latitude | Longitude | Altitude | Speed | Heading |
|---|---|---|---|---|---|
| 2026-04-12 03:36 | 44.70907 | 65.58799 | 424 ft | 0 kts | 330° |
| 2026-04-12 04:00 | 44.70909 | 65.58798 | 415 ft | 1 kts | 330° |
| 2026-04-12 04:00 | 44.70907 | 65.58789 | 418 ft | 5 kts | 146° |
| 2026-04-12 04:00 | 44.70852 | 65.58842 | 424 ft | 8 kts | 161° |
| 2026-04-12 04:00 | 44.70805 | 65.58818 | 424 ft | 8 kts | 242° |
| 2026-04-12 04:01 | 44.70757 | 65.58767 | 424 ft | 10 kts | 173° |
| 2026-04-12 04:01 | 44.70717 | 65.58795 | 424 ft | 10 kts | 141° |
| 2026-04-12 04:01 | 44.70673 | 65.58825 | 424 ft | 0 kts | 152° |
| 2026-04-12 04:04 | 44.70643 | 65.58851 | 421 ft | 14 kts | 150° |
| 2026-04-12 04:04 | 44.70549 | 65.58850 | 422 ft | 16 kts | 232° |
| 2026-04-12 04:04 | 44.70482 | 65.58680 | 416 ft | 22 kts | 243° |
| 2026-04-12 04:05 | 44.70409 | 65.58492 | 423 ft | 22 kts | 240° |
| 2026-04-12 04:05 | 44.70343 | 65.58314 | 425 ft | 19 kts | 238° |
| 2026-04-12 04:05 | 44.70273 | 65.58140 | 420 ft | 22 kts | 239° |
| 2026-04-12 04:05 | 44.70200 | 65.57957 | 420 ft | 21 kts | 242° |
| 2026-04-12 04:06 | 44.70132 | 65.57787 | 422 ft | 18 kts | 243° |
| 2026-04-12 04:06 | 44.70103 | 65.57663 | 423 ft | 12 kts | 292° |
| 2026-04-12 04:06 | 44.70083 | 65.57579 | 424 ft | 13 kts | 166° |
| 2026-04-12 04:06 | 44.70075 | 65.57635 | 423 ft | 0 kts | 63° |
| 2026-04-12 04:07 | 44.70113 | 65.57735 | 418 ft | 39 kts | 61° |
| 2026-04-12 04:07 | 44.70329 | 65.58292 | 433 ft | 85 kts | 61° |
| 2026-04-12 04:07 | 44.70632 | 65.59079 | 591 ft | 95 kts | 62° |
| 2026-04-12 04:08 | 44.70944 | 65.59878 | 1007 ft | 92 kts | 61° |
| 2026-04-12 04:08 | 44.71272 | 65.60640 | 1320 ft | 93 kts | 64° |
| 2026-04-12 04:08 | 44.71595 | 65.61441 | 1516 ft | 98 kts | 66° |
| 2026-04-12 04:08 | 44.71738 | 65.62346 | 1815 ft | 92 kts | 95° |
| 2026-04-12 04:09 | 44.71541 | 65.63188 | 2119 ft | 92 kts | 121° |
| 2026-04-12 04:09 | 44.71102 | 65.63876 | 2398 ft | 96 kts | 131° |
| 2026-04-12 04:09 | 44.70624 | 65.64543 | 2697 ft | 97 kts | 132° |
| 2026-04-12 04:09 | 44.70179 | 65.65236 | 3000 ft | 94 kts | 130° |
| 2026-04-12 04:10 | 44.69708 | 65.65899 | 3282 ft | 98 kts | 133° |
| 2026-04-12 04:10 | 44.69231 | 65.66569 | 3617 ft | 96 kts | 131° |
| 2026-04-12 04:10 | 44.68757 | 65.67232 | 3877 ft | 97 kts | 131° |
| 2026-04-12 04:10 | 44.68266 | 65.67886 | 4181 ft | 97 kts | 134° |
| 2026-04-12 04:11 | 44.67830 | 65.68617 | 4465 ft | 97 kts | 123° |
| 2026-04-12 04:11 | 44.67511 | 65.69443 | 4751 ft | 97 kts | 111° |
| 2026-04-12 04:11 | 44.67252 | 65.70319 | 5006 ft | 98 kts | 112° |
| 2026-04-12 04:11 | 44.67001 | 65.71215 | 5277 ft | 97 kts | 104° |
| 2026-04-12 04:12 | 44.66796 | 65.72113 | 5555 ft | 99 kts | 106° |
| 2026-04-12 04:12 | 44.66570 | 65.73061 | 5818 ft | 102 kts | 108° |
| 2026-04-12 04:12 | 44.66350 | 65.74005 | 6082 ft | 103 kts | 107° |
| 2026-04-12 04:12 | 44.66147 | 65.74963 | 6405 ft | 102 kts | 105° |
| 2026-04-12 04:13 | 44.65956 | 65.75915 | 6678 ft | 102 kts | 105° |
| 2026-04-12 04:13 | 44.65767 | 65.76877 | 6976 ft | 102 kts | 105° |
| 2026-04-12 04:13 | 44.65577 | 65.77841 | 7233 ft | 103 kts | 108° |
| 2026-04-12 04:13 | 44.65251 | 65.78732 | 7517 ft | 104 kts | 128° |
| 2026-04-12 04:14 | 44.64772 | 65.79500 | 7768 ft | 105 kts | 131° |
| 2026-04-12 04:14 | 44.64264 | 65.80236 | 8065 ft | 105 kts | 133° |
| 2026-04-12 04:14 | 44.63752 | 65.80970 | 8357 ft | 105 kts | 133° |
| 2026-04-12 04:14 | 44.63240 | 65.81704 | 8656 ft | 106 kts | 134° |
| 2026-04-12 04:15 | 44.62727 | 65.82450 | 8956 ft | 106 kts | 133° |
| 2026-04-12 04:15 | 44.62213 | 65.83202 | 9237 ft | 107 kts | 133° |
| 2026-04-12 04:15 | 44.61695 | 65.83959 | 9501 ft | 108 kts | 133° |
| 2026-04-12 04:15 | 44.61177 | 65.84720 | 9784 ft | 108 kts | 133° |
| 2026-04-12 04:16 | 44.60659 | 65.85481 | 10056 ft | 108 kts | 133° |
| 2026-04-12 04:16 | 44.60142 | 65.86248 | 10307 ft | 108 kts | 133° |
| 2026-04-12 04:16 | 44.59622 | 65.87017 | 10562 ft | 109 kts | 133° |
| 2026-04-12 04:16 | 44.59084 | 65.87766 | 10822 ft | 110 kts | 144° |
| 2026-04-12 04:17 | 44.58557 | 65.88533 | 11092 ft | 109 kts | 127° |
| 2026-04-12 04:17 | 44.58110 | 65.89384 | 11344 ft | 110 kts | 127° |
| 2026-04-12 04:17 | 44.57655 | 65.90256 | 11604 ft | 111 kts | 127° |
| 2026-04-12 04:17 | 44.57197 | 65.91128 | 11871 ft | 111 kts | 127° |
| 2026-04-12 04:18 | 44.56739 | 65.92000 | 12136 ft | 112 kts | 127° |
| 2026-04-12 04:18 | 44.56276 | 65.92878 | 12410 ft | 112 kts | 127° |
| 2026-04-12 04:18 | 44.55813 | 65.93757 | 12685 ft | 112 kts | 127° |
| 2026-04-12 04:18 | 44.55347 | 65.94641 | 12950 ft | 113 kts | 127° |
| 2026-04-12 04:19 | 44.54880 | 65.95530 | 13205 ft | 115 kts | 127° |
| 2026-04-12 04:19 | 44.54359 | 65.96513 | 13220 ft | 135 kts | 127° |
| 2026-04-12 04:19 | 44.53768 | 65.97625 | 13217 ft | 148 kts | 127° |
| 2026-04-12 04:19 | 44.53131 | 65.98830 | 13210 ft | 158 kts | 127° |
| 2026-04-12 04:20 | 44.52466 | 66.00095 | 13214 ft | 163 kts | 126° |
| 2026-04-12 04:20 | 44.51793 | 66.01372 | 13211 ft | 162 kts | 127° |
| 2026-04-12 04:20 | 44.51130 | 66.02628 | 13212 ft | 162 kts | 126° |
| 2026-04-12 04:20 | 44.50459 | 66.03903 | 13210 ft | 162 kts | 126° |
| 2026-04-12 04:21 | 44.49788 | 66.05169 | 13214 ft | 162 kts | 126° |
| 2026-04-12 04:21 | 44.49117 | 66.06441 | 13220 ft | 163 kts | 126° |
| 2026-04-12 04:21 | 44.48441 | 66.07721 | 13209 ft | 163 kts | 126° |
| 2026-04-12 04:21 | 44.47766 | 66.08997 | 13209 ft | 163 kts | 126° |
| 2026-04-12 04:22 | 44.47089 | 66.10276 | 13213 ft | 164 kts | 126° |
| 2026-04-12 04:22 | 44.46408 | 66.11560 | 13210 ft | 164 kts | 126° |
| 2026-04-12 04:22 | 44.45729 | 66.12841 | 13207 ft | 164 kts | 126° |
| 2026-04-12 04:22 | 44.45052 | 66.14120 | 13210 ft | 164 kts | 126° |
| 2026-04-12 04:23 | 44.44372 | 66.15400 | 13211 ft | 164 kts | 126° |
| 2026-04-12 04:23 | 44.43691 | 66.16682 | 13212 ft | 164 kts | 126° |
| 2026-04-12 04:23 | 44.43020 | 66.17946 | 13212 ft | 164 kts | 126° |
| 2026-04-12 04:23 | 44.42340 | 66.19227 | 13212 ft | 164 kts | 126° |
| 2026-04-12 04:24 | 44.41659 | 66.20507 | 13206 ft | 163 kts | 126° |
| 2026-04-12 04:24 | 44.40980 | 66.21783 | 13210 ft | 163 kts | 126° |
| 2026-04-12 04:24 | 44.40302 | 66.23058 | 13209 ft | 164 kts | 126° |
| 2026-04-12 04:24 | 44.39621 | 66.24339 | 13209 ft | 164 kts | 126° |
| 2026-04-12 04:25 | 44.38940 | 66.25621 | 13206 ft | 164 kts | 126° |
| 2026-04-12 04:25 | 44.38259 | 66.26900 | 13209 ft | 164 kts | 126° |
| 2026-04-12 04:25 | 44.37577 | 66.28178 | 13212 ft | 164 kts | 126° |
| 2026-04-12 04:25 | 44.36896 | 66.29453 | 13210 ft | 164 kts | 127° |
| 2026-04-12 04:26 | 44.36216 | 66.30729 | 13213 ft | 164 kts | 126° |
| 2026-04-12 04:26 | 44.35535 | 66.32008 | 13208 ft | 164 kts | 126° |
| 2026-04-12 04:26 | 44.34855 | 66.33283 | 13206 ft | 164 kts | 127° |
| 2026-04-12 04:26 | 44.34173 | 66.34558 | 13208 ft | 164 kts | 126° |
| 2026-04-12 04:27 | 44.33493 | 66.35831 | 13208 ft | 164 kts | 126° |
| 2026-04-12 04:27 | 44.32813 | 66.37104 | 13206 ft | 163 kts | 126° |
| 2026-04-12 04:27 | 44.32132 | 66.38377 | 13204 ft | 163 kts | 126° |
| 2026-04-12 04:27 | 44.31453 | 66.39647 | 13207 ft | 164 kts | 126° |
| 2026-04-12 04:28 | 44.30779 | 66.40905 | 13207 ft | 164 kts | 126° |
| 2026-04-12 04:28 | 44.30095 | 66.42183 | 13203 ft | 164 kts | 126° |
| 2026-04-12 04:28 | 44.29442 | 66.43487 | 13203 ft | 164 kts | 124° |
| 2026-04-12 04:28 | 44.28788 | 66.44792 | 13207 ft | 164 kts | 124° |
| 2026-04-12 04:29 | 44.28126 | 66.46101 | 13205 ft | 165 kts | 124° |
| 2026-04-12 04:29 | 44.27467 | 66.47413 | 13203 ft | 165 kts | 124° |
| 2026-04-12 04:29 | 44.26813 | 66.48727 | 13205 ft | 165 kts | 124° |
| 2026-04-12 04:29 | 44.26160 | 66.50038 | 13201 ft | 165 kts | 124° |
| 2026-04-12 04:30 | 44.25507 | 66.51345 | 13205 ft | 164 kts | 124° |
| 2026-04-12 04:30 | 44.24855 | 66.52651 | 13201 ft | 164 kts | 124° |
| 2026-04-12 04:30 | 44.24211 | 66.53940 | 13200 ft | 164 kts | 124° |
| 2026-04-12 04:30 | 44.23557 | 66.55249 | 13200 ft | 164 kts | 124° |
| 2026-04-12 04:31 | 44.22902 | 66.56560 | 13206 ft | 165 kts | 124° |
| 2026-04-12 04:31 | 44.22248 | 66.57867 | 13205 ft | 164 kts | 124° |
| 2026-04-12 04:31 | 44.21592 | 66.59176 | 13202 ft | 165 kts | 124° |
| 2026-04-12 04:31 | 44.20937 | 66.60484 | 13203 ft | 165 kts | 124° |
| 2026-04-12 04:32 | 44.20282 | 66.61794 | 13206 ft | 165 kts | 124° |
| 2026-04-12 04:32 | 44.19626 | 66.63101 | 13206 ft | 165 kts | 124° |
| 2026-04-12 04:32 | 44.18970 | 66.64408 | 13204 ft | 164 kts | 124° |
| 2026-04-12 04:32 | 44.18315 | 66.65715 | 13206 ft | 164 kts | 124° |
| 2026-04-12 04:33 | 44.17660 | 66.67021 | 13204 ft | 165 kts | 124° |
| 2026-04-12 04:33 | 44.17001 | 66.68333 | 13206 ft | 165 kts | 124° |
| 2026-04-12 04:33 | 44.16344 | 66.69642 | 13204 ft | 165 kts | 124° |
| 2026-04-12 04:33 | 44.15688 | 66.70950 | 13205 ft | 164 kts | 124° |
| 2026-04-12 04:34 | 44.15032 | 66.72254 | 13208 ft | 165 kts | 124° |
| 2026-04-12 04:34 | 44.14382 | 66.73546 | 13207 ft | 164 kts | 124° |
| 2026-04-12 04:34 | 44.13727 | 66.74849 | 13204 ft | 164 kts | 124° |
| 2026-04-12 04:34 | 44.13072 | 66.76149 | 13204 ft | 164 kts | 124° |
| 2026-04-12 04:35 | 44.12418 | 66.77449 | 13207 ft | 164 kts | 124° |
| 2026-04-12 04:35 | 44.11764 | 66.78750 | 13210 ft | 164 kts | 124° |
| 2026-04-12 04:35 | 44.11107 | 66.80051 | 13208 ft | 164 kts | 124° |
| 2026-04-12 04:35 | 44.10449 | 66.81355 | 13203 ft | 165 kts | 124° |
| 2026-04-12 04:36 | 44.09793 | 66.82653 | 13210 ft | 164 kts | 124° |
| 2026-04-12 04:36 | 44.09138 | 66.83956 | 13209 ft | 165 kts | 124° |
| 2026-04-12 04:36 | 44.08479 | 66.85259 | 13213 ft | 164 kts | 124° |
| 2026-04-12 04:36 | 44.07828 | 66.86545 | 13207 ft | 164 kts | 124° |
| 2026-04-12 04:37 | 44.07170 | 66.87846 | 13210 ft | 165 kts | 124° |
| 2026-04-12 04:37 | 44.06512 | 66.89151 | 13211 ft | 164 kts | 124° |
| 2026-04-12 04:37 | 44.05854 | 66.90449 | 13212 ft | 164 kts | 124° |
| 2026-04-12 04:37 | 44.05195 | 66.91752 | 13210 ft | 164 kts | 124° |
| 2026-04-12 04:38 | 44.04538 | 66.93049 | 13209 ft | 163 kts | 124° |
| 2026-04-12 04:38 | 44.03886 | 66.94337 | 13208 ft | 163 kts | 124° |
| 2026-04-12 04:38 | 44.03232 | 66.95626 | 13208 ft | 163 kts | 124° |
| 2026-04-12 04:38 | 44.02578 | 66.96919 | 13210 ft | 164 kts | 124° |
| 2026-04-12 04:39 | 44.01920 | 66.98218 | 13203 ft | 164 kts | 124° |
| 2026-04-12 04:39 | 44.01262 | 66.99515 | 13206 ft | 164 kts | 124° |
| 2026-04-12 04:39 | 44.00602 | 67.00815 | 13207 ft | 165 kts | 124° |
| 2026-04-12 04:39 | 43.99950 | 67.02096 | 13204 ft | 164 kts | 124° |
| 2026-04-12 04:40 | 43.99293 | 67.03390 | 13207 ft | 164 kts | 124° |
| 2026-04-12 04:40 | 43.98637 | 67.04681 | 13209 ft | 164 kts | 124° |
| 2026-04-12 04:40 | 43.97979 | 67.05976 | 13205 ft | 164 kts | 124° |
| 2026-04-12 04:40 | 43.97321 | 67.07267 | 13208 ft | 164 kts | 124° |
| 2026-04-12 04:41 | 43.96664 | 67.08560 | 13212 ft | 164 kts | 124° |
| 2026-04-12 04:41 | 43.96004 | 67.09856 | 13211 ft | 164 kts | 124° |
| 2026-04-12 04:41 | 43.95343 | 67.11154 | 13205 ft | 165 kts | 124° |
| 2026-04-12 04:41 | 43.94678 | 67.12453 | 13208 ft | 165 kts | 124° |
| 2026-04-12 04:42 | 43.94016 | 67.13755 | 13211 ft | 165 kts | 124° |
| 2026-04-12 04:42 | 43.93360 | 67.15042 | 13209 ft | 165 kts | 124° |
| 2026-04-12 04:42 | 43.92696 | 67.16345 | 13208 ft | 165 kts | 124° |
| 2026-04-12 04:43 | 43.91361 | 67.18955 | 13207 ft | 165 kts | 124° |
| 2026-04-12 04:43 | 43.90696 | 67.20257 | 13209 ft | 165 kts | 124° |
| 2026-04-12 04:43 | 43.90030 | 67.21562 | 13204 ft | 166 kts | 124° |
| 2026-04-12 04:43 | 43.89363 | 67.22866 | 13209 ft | 166 kts | 124° |
| 2026-04-12 04:44 | 43.88696 | 67.24170 | 13206 ft | 166 kts | 124° |
| 2026-04-12 04:44 | 43.88028 | 67.25473 | 13208 ft | 165 kts | 124° |
| 2026-04-12 04:44 | 43.87363 | 67.26771 | 13208 ft | 165 kts | 124° |
| 2026-04-12 04:44 | 43.86700 | 67.28066 | 13207 ft | 165 kts | 124° |
| 2026-04-12 04:45 | 43.86045 | 67.29343 | 13202 ft | 164 kts | 124° |
| 2026-04-12 04:45 | 43.85384 | 67.30631 | 13202 ft | 164 kts | 124° |
| 2026-04-12 04:45 | 43.84724 | 67.31918 | 13202 ft | 164 kts | 124° |
| 2026-04-12 04:45 | 43.84063 | 67.33206 | 13202 ft | 164 kts | 124° |
| 2026-04-12 04:46 | 43.83402 | 67.34493 | 13205 ft | 164 kts | 124° |
| 2026-04-12 04:46 | 43.82739 | 67.35784 | 13203 ft | 164 kts | 124° |
| 2026-04-12 04:46 | 43.82078 | 67.37070 | 13202 ft | 164 kts | 124° |
| 2026-04-12 04:46 | 43.81418 | 67.38353 | 13205 ft | 164 kts | 124° |
| 2026-04-12 04:47 | 43.80756 | 67.39641 | 13205 ft | 164 kts | 124° |
| 2026-04-12 04:47 | 43.80317 | 67.40493 | 13205 ft | 164 kts | 124° |
| 2026-04-12 04:47 | 43.79655 | 67.41779 | 13202 ft | 164 kts | 124° |
| 2026-04-12 04:47 | 43.78778 | 67.43482 | 13204 ft | 164 kts | 124° |
| 2026-04-12 04:48 | 43.78117 | 67.44765 | 13207 ft | 164 kts | 124° |
| 2026-04-12 04:48 | 43.77451 | 67.46056 | 13203 ft | 164 kts | 124° |
| 2026-04-12 04:48 | 43.77002 | 67.46927 | 13201 ft | 164 kts | 124° |
| 2026-04-12 04:48 | 43.76338 | 67.48214 | 13204 ft | 165 kts | 124° |
| 2026-04-12 04:49 | 43.75673 | 67.49504 | 13205 ft | 164 kts | 124° |
| 2026-04-12 04:49 | 43.75016 | 67.50774 | 13205 ft | 165 kts | 124° |
| 2026-04-12 04:49 | 43.74348 | 67.52064 | 13204 ft | 165 kts | 124° |
| 2026-04-12 04:49 | 43.73681 | 67.53356 | 13203 ft | 165 kts | 124° |
| 2026-04-12 04:50 | 43.73014 | 67.54646 | 13202 ft | 164 kts | 124° |
| 2026-04-12 04:50 | 43.72350 | 67.55929 | 13202 ft | 164 kts | 124° |
| 2026-04-12 04:50 | 43.71684 | 67.57214 | 13204 ft | 164 kts | 124° |
| 2026-04-12 04:50 | 43.71018 | 67.58499 | 13206 ft | 165 kts | 124° |
| 2026-04-12 04:51 | 43.70351 | 67.59787 | 13206 ft | 165 kts | 124° |
| 2026-04-12 04:51 | 43.69682 | 67.61077 | 13206 ft | 165 kts | 124° |
| 2026-04-12 04:51 | 43.69012 | 67.62369 | 13207 ft | 166 kts | 124° |
| 2026-04-12 04:51 | 43.68339 | 67.63665 | 13202 ft | 166 kts | 124° |
| 2026-04-12 04:52 | 43.67668 | 67.64956 | 13206 ft | 165 kts | 124° |
| 2026-04-12 04:52 | 43.66997 | 67.66248 | 13205 ft | 166 kts | 124° |
| 2026-04-12 04:52 | 43.66324 | 67.67543 | 13205 ft | 166 kts | 124° |
| 2026-04-12 04:52 | 43.65653 | 67.68835 | 13207 ft | 165 kts | 124° |
| 2026-04-12 04:53 | 43.64982 | 67.70125 | 13204 ft | 165 kts | 124° |
| 2026-04-12 04:53 | 43.64310 | 67.71415 | 13204 ft | 166 kts | 124° |
| 2026-04-12 04:53 | 43.62974 | 67.73981 | 13205 ft | 166 kts | 124° |
| 2026-04-12 04:54 | 43.62299 | 67.75276 | 13204 ft | 166 kts | 124° |
| 2026-04-12 04:54 | 43.61625 | 67.76569 | 13206 ft | 166 kts | 124° |
| 2026-04-12 04:54 | 43.60950 | 67.77864 | 13204 ft | 166 kts | 124° |
| 2026-04-12 04:54 | 43.60273 | 67.79160 | 13204 ft | 167 kts | 124° |
| 2026-04-12 04:55 | 43.59597 | 67.80456 | 13205 ft | 167 kts | 124° |
| 2026-04-12 04:55 | 43.58920 | 67.81753 | 13200 ft | 166 kts | 124° |
| 2026-04-12 04:55 | 43.58243 | 67.83048 | 13206 ft | 167 kts | 124° |
| 2026-04-12 04:55 | 43.57565 | 67.84346 | 13203 ft | 167 kts | 124° |
| 2026-04-12 04:56 | 43.56886 | 67.85644 | 13202 ft | 167 kts | 124° |
| 2026-04-12 04:56 | 43.56205 | 67.86945 | 13201 ft | 167 kts | 124° |
| 2026-04-12 04:56 | 43.55534 | 67.88226 | 13201 ft | 167 kts | 124° |
| 2026-04-12 04:56 | 43.54847 | 67.89540 | 13202 ft | 167 kts | 124° |
| 2026-04-12 04:57 | 43.54176 | 67.90822 | 13204 ft | 167 kts | 124° |
| 2026-04-12 04:57 | 43.53577 | 67.92215 | 13197 ft | 167 kts | 113° |
| 2026-04-12 04:57 | 43.53116 | 67.93661 | 13203 ft | 167 kts | 112° |
| 2026-04-12 04:57 | 43.52654 | 67.95130 | 13203 ft | 167 kts | 112° |
| 2026-04-12 04:58 | 43.52190 | 67.96603 | 13170 ft | 169 kts | 112° |
| 2026-04-12 04:58 | 43.51720 | 67.98085 | 13012 ft | 167 kts | 112° |
| 2026-04-12 04:58 | 43.51259 | 67.99539 | 12851 ft | 164 kts | 112° |
| 2026-04-12 04:58 | 43.50806 | 68.00971 | 12690 ft | 162 kts | 112° |
| 2026-04-12 04:59 | 43.50359 | 68.02386 | 12522 ft | 161 kts | 112° |
| 2026-04-12 04:59 | 43.49915 | 68.03789 | 12368 ft | 160 kts | 112° |
| 2026-04-12 04:59 | 43.49471 | 68.05187 | 12204 ft | 158 kts | 112° |
| 2026-04-12 04:59 | 43.49027 | 68.06590 | 11907 ft | 165 kts | 112° |
| 2026-04-12 05:00 | 43.48560 | 68.08057 | 11656 ft | 166 kts | 112° |
| 2026-04-12 05:00 | 43.48101 | 68.09504 | 11484 ft | 163 kts | 112° |
| 2026-04-12 05:00 | 43.47650 | 68.10919 | 11322 ft | 160 kts | 112° |
| 2026-04-12 05:00 | 43.47206 | 68.12317 | 11164 ft | 158 kts | 111° |
| 2026-04-12 05:01 | 43.46773 | 68.13679 | 11004 ft | 157 kts | 112° |
| 2026-04-12 05:01 | 43.46337 | 68.15049 | 10855 ft | 156 kts | 111° |
| 2026-04-12 05:01 | 43.45899 | 68.16424 | 10688 ft | 157 kts | 111° |
| 2026-04-12 05:01 | 43.45460 | 68.17802 | 10537 ft | 157 kts | 111° |
| 2026-04-12 05:02 | 43.45019 | 68.19184 | 10374 ft | 158 kts | 111° |
| 2026-04-12 05:02 | 43.44577 | 68.20569 | 10215 ft | 158 kts | 111° |
| 2026-04-12 05:02 | 43.44133 | 68.21959 | 10050 ft | 158 kts | 111° |
| 2026-04-12 05:02 | 43.43690 | 68.23346 | 9885 ft | 158 kts | 112° |
| 2026-04-12 05:03 | 43.43251 | 68.24719 | 9725 ft | 156 kts | 111° |
| 2026-04-12 05:03 | 43.42817 | 68.26075 | 9573 ft | 154 kts | 111° |
| 2026-04-12 05:03 | 43.42386 | 68.27425 | 9418 ft | 154 kts | 111° |
| 2026-04-12 05:03 | 43.41957 | 68.28767 | 9258 ft | 153 kts | 111° |
| 2026-04-12 05:04 | 43.41536 | 68.30080 | 9106 ft | 151 kts | 111° |
| 2026-04-12 05:04 | 43.41115 | 68.31398 | 8960 ft | 150 kts | 111° |
| 2026-04-12 05:04 | 43.40697 | 68.32713 | 8808 ft | 150 kts | 111° |
| 2026-04-12 05:04 | 43.40279 | 68.34025 | 8657 ft | 150 kts | 111° |
| 2026-04-12 05:05 | 43.39860 | 68.35338 | 8504 ft | 150 kts | 112° |
| 2026-04-12 05:05 | 43.39443 | 68.36643 | 8356 ft | 149 kts | 112° |
| 2026-04-12 05:05 | 43.39025 | 68.37948 | 8196 ft | 149 kts | 112° |
| 2026-04-12 05:05 | 43.38610 | 68.39243 | 8043 ft | 147 kts | 111° |
| 2026-04-12 05:06 | 43.38202 | 68.40516 | 7901 ft | 145 kts | 111° |
| 2026-04-12 05:06 | 43.37799 | 68.41772 | 7758 ft | 143 kts | 111° |
| 2026-04-12 05:06 | 43.37402 | 68.43015 | 7614 ft | 142 kts | 111° |
| 2026-04-12 05:06 | 43.37027 | 68.44278 | 7447 ft | 141 kts | 111° |
| 2026-04-12 05:07 | 43.36643 | 68.45499 | 7324 ft | 137 kts | 111° |
| 2026-04-12 05:07 | 43.36258 | 68.46690 | 7195 ft | 135 kts | 111° |
| 2026-04-12 05:07 | 43.35874 | 68.47881 | 7049 ft | 138 kts | 111° |
| 2026-04-12 05:07 | 43.35482 | 68.49093 | 6896 ft | 141 kts | 111° |
| 2026-04-12 05:08 | 43.35083 | 68.50334 | 6748 ft | 143 kts | 111° |
| 2026-04-12 05:08 | 43.34684 | 68.51581 | 6603 ft | 143 kts | 111° |
| 2026-04-12 05:08 | 43.34276 | 68.52827 | 6447 ft | 144 kts | 111° |
| 2026-04-12 05:08 | 43.33865 | 68.54081 | 6299 ft | 143 kts | 111° |
| 2026-04-12 05:09 | 43.33454 | 68.55318 | 6158 ft | 141 kts | 111° |
| 2026-04-12 05:09 | 43.33038 | 68.56541 | 6031 ft | 141 kts | 112° |
| 2026-04-12 05:09 | 43.32629 | 68.57746 | 5998 ft | 136 kts | 111° |
| 2026-04-12 05:09 | 43.32439 | 68.58987 | 5996 ft | 132 kts | 88° |
| 2026-04-12 05:10 | 43.32484 | 68.60234 | 5995 ft | 129 kts | 85° |
| 2026-04-12 05:10 | 43.32545 | 68.61457 | 5998 ft | 128 kts | 85° |
| 2026-04-12 05:10 | 43.32621 | 68.62675 | 5994 ft | 127 kts | 84° |
| 2026-04-12 05:10 | 43.32701 | 68.63869 | 5998 ft | 127 kts | 83° |
| 2026-04-12 05:11 | 43.33124 | 68.64900 | 5992 ft | 131 kts | 39° |
| 2026-04-12 05:11 | 43.34040 | 68.65126 | 5981 ft | 145 kts | 354° |
| 2026-04-12 05:11 | 43.34894 | 68.64324 | 5986 ft | 159 kts | 309° |
| 2026-04-12 05:11 | 43.35167 | 68.62852 | 5989 ft | 164 kts | 264° |
| 2026-04-12 05:12 | 43.34728 | 68.61436 | 6001 ft | 160 kts | 233° |
| 2026-04-12 05:12 | 43.34054 | 68.60215 | 5998 ft | 160 kts | 228° |
| 2026-04-12 05:12 | 43.33342 | 68.59045 | 5996 ft | 159 kts | 226° |
| 2026-04-12 05:12 | 43.32621 | 68.57882 | 5987 ft | 161 kts | 226° |
| 2026-04-12 05:13 | 43.31774 | 68.56893 | 5899 ft | 159 kts | 201° |
| 2026-04-12 05:13 | 43.30745 | 68.56354 | 5833 ft | 160 kts | 195° |
| 2026-04-12 05:13 | 43.29752 | 68.55612 | 5744 ft | 166 kts | 213° |
| 2026-04-12 05:13 | 43.28825 | 68.54621 | 5628 ft | 170 kts | 214° |
| 2026-04-12 05:14 | 43.27889 | 68.53643 | 5513 ft | 171 kts | 211° |
| 2026-04-12 05:14 | 43.26918 | 68.52713 | 5404 ft | 170 kts | 210° |
| 2026-04-12 05:14 | 43.25937 | 68.51803 | 5277 ft | 169 kts | 208° |
| 2026-04-12 05:14 | 43.24966 | 68.50912 | 5164 ft | 168 kts | 208° |
| 2026-04-12 05:15 | 43.24006 | 68.50028 | 5058 ft | 166 kts | 208° |
| 2026-04-12 05:15 | 43.23043 | 68.49139 | 4933 ft | 167 kts | 209° |
| 2026-04-12 05:15 | 43.22086 | 68.48255 | 4817 ft | 165 kts | 208° |
| 2026-04-12 05:15 | 43.21131 | 68.47374 | 4706 ft | 167 kts | 209° |
| 2026-04-12 05:16 | 43.20165 | 68.46483 | 4589 ft | 167 kts | 209° |
| 2026-04-12 05:16 | 43.19204 | 68.45595 | 4470 ft | 167 kts | 209° |
| 2026-04-12 05:16 | 43.18230 | 68.44696 | 4356 ft | 171 kts | 209° |
| 2026-04-12 05:16 | 43.17252 | 68.43796 | 4242 ft | 167 kts | 208° |
| 2026-04-12 05:17 | 43.16298 | 68.42913 | 4116 ft | 168 kts | 210° |
| 2026-04-12 05:17 | 43.15324 | 68.42020 | 3992 ft | 168 kts | 209° |
| 2026-04-12 05:17 | 43.14360 | 68.41147 | 3984 ft | 164 kts | 208° |
| 2026-04-12 05:17 | 43.13632 | 68.39972 | 3986 ft | 163 kts | 250° |
| 2026-04-12 05:18 | 43.13620 | 68.38486 | 3989 ft | 154 kts | 295° |
| 2026-04-12 05:18 | 43.14261 | 68.37397 | 3996 ft | 145 kts | 328° |
| 2026-04-12 05:18 | 43.15047 | 68.36509 | 3983 ft | 149 kts | 327° |
| 2026-04-12 05:18 | 43.15858 | 68.35608 | 3973 ft | 149 kts | 327° |
| 2026-04-12 05:19 | 43.16652 | 68.34717 | 3979 ft | 147 kts | 327° |
| 2026-04-12 05:19 | 43.17513 | 68.34073 | 3978 ft | 136 kts | 352° |
| 2026-04-12 05:19 | 43.18411 | 68.33942 | 3983 ft | 127 kts | 10° |
| 2026-04-12 05:19 | 43.19276 | 68.34096 | 3947 ft | 126 kts | 21° |
| 2026-04-12 05:20 | 43.20105 | 68.34509 | 3813 ft | 132 kts | 32° |
| 2026-04-12 05:20 | 43.20878 | 68.35197 | 3676 ft | 133 kts | 40° |
| 2026-04-12 05:20 | 43.21546 | 68.36061 | 3561 ft | 133 kts | 53° |
| 2026-04-12 05:20 | 43.22106 | 68.37058 | 3439 ft | 130 kts | 57° |
| 2026-04-12 05:21 | 43.22631 | 68.38061 | 3345 ft | 132 kts | 57° |
| 2026-04-12 05:21 | 43.23174 | 68.39111 | 3213 ft | 135 kts | 57° |
| 2026-04-12 05:21 | 43.23700 | 68.40152 | 3078 ft | 133 kts | 58° |
| 2026-04-12 05:21 | 43.24215 | 68.41209 | 2979 ft | 126 kts | 58° |
| 2026-04-12 05:22 | 43.24679 | 68.42138 | 2882 ft | 112 kts | 58° |
| 2026-04-12 05:22 | 43.25083 | 68.42945 | 2748 ft | 95 kts | 59° |
| 2026-04-12 05:22 | 43.25452 | 68.43682 | 2617 ft | 92 kts | 59° |
| 2026-04-12 05:22 | 43.25801 | 68.44408 | 2466 ft | 92 kts | 62° |
| 2026-04-12 05:23 | 43.26148 | 68.45125 | 2347 ft | 90 kts | 58° |
| 2026-04-12 05:23 | 43.26485 | 68.45843 | 2233 ft | 87 kts | 54° |
| 2026-04-12 05:23 | 43.26838 | 68.46504 | 2063 ft | 86 kts | 55° |
| 2026-04-12 05:23 | 43.27179 | 68.47164 | 1931 ft | 86 kts | 57° |
| 2026-04-12 05:24 | 43.27522 | 68.47848 | 1840 ft | 89 kts | 57° |
| 2026-04-12 05:24 | 43.27866 | 68.48534 | 1714 ft | 85 kts | 60° |
| 2026-04-12 05:24 | 43.28203 | 68.49206 | 1558 ft | 84 kts | 60° |
| 2026-04-12 05:24 | 43.28536 | 68.49901 | 1511 ft | 94 kts | 56° |
| 2026-04-12 05:25 | 43.28924 | 68.50638 | 1445 ft | 94 kts | 57° |
| 2026-04-12 05:25 | 43.29291 | 68.51387 | 1316 ft | 94 kts | 58° |
| 2026-04-12 05:25 | 43.29665 | 68.52135 | 1166 ft | 96 kts | 57° |
| 2026-04-12 05:25 | 43.30040 | 68.52880 | 1046 ft | 94 kts | 61° |
| 2026-04-12 05:26 | 43.30406 | 68.53626 | 921 ft | 92 kts | 59° |
| 2026-04-12 05:26 | 43.30707 | 68.54237 | 912 ft | 60 kts | 55° |
| 2026-04-12 05:26 | 43.30899 | 68.54613 | 909 ft | 38 kts | 56° |
| 2026-04-12 05:26 | 43.31012 | 68.54846 | 911 ft | 23 kts | 55° |
| 2026-04-12 05:27 | 43.31082 | 68.54983 | 913 ft | 14 kts | 55° |
| 2026-04-12 05:27 | 43.31154 | 68.55007 | 913 ft | 12 kts | 326° |
| 2026-04-12 05:27 | 43.31223 | 68.54942 | 914 ft | 12 kts | 327° |
| 2026-04-12 05:27 | 43.31293 | 68.54877 | 914 ft | 12 kts | 324° |
| 2026-04-12 05:28 | 43.31361 | 68.54812 | 914 ft | 8 kts | 324° |
| 2026-04-12 05:28 | 43.31374 | 68.54758 | 914 ft | 9 kts | 252° |
| 2026-04-12 05:28 | 43.31328 | 68.54664 | 914 ft | 11 kts | 239° |
| 2026-04-12 05:28 | 43.31360 | 68.54603 | 914 ft | 8 kts | 334° |
| 2026-04-12 05:29 | 43.31401 | 68.54640 | 914 ft | 6 kts | 54° |
| 2026-04-12 05:29 | 43.31413 | 68.54663 | 914 ft | 0 kts | 55° |